Canadon Seco, Argentina
Current Conditions -  °F | °C
As of 3:00 AM on Thursday 27 Nov 2014 (Local Time) from SAVC Reporting Station
Clear Clear  
Wind Chill: 15°   Ceiling: Unl
Heat Index: 15°   Visibility: 6mi
Dew Point: -5°   Wind: 13mph
Humidity: 25%   Direction: 290°WNW
Pressure: 29.85"   Gusts: NA
Location:  46.55°S, 67.58°W
Report Text: SAVC 270600Z 29011KT CAVOK 15/M05 Q1011
Loading
Personal Weather Stations






























Interactive Weather Map New forecast layout! Learn more

10-Day Weather Forecast

Advertisements
Track Severe Weather on mobile